PWSweather.com
Personal Weather Stations
Station Observations
DW1039
Liberty & Fairfield Townships, Hamilton, OH 45011

Liberty & Fairfield TownshipsHamilton, OH 45011

Lat: 39.3933, Lon: -84.477

Elevation: 780

Station Type: Davis Vantage Pro2 (Daytime Fan Aspirated)

http://www.lfweathercenter.com/

High Low Average
Temperature 40.4°F4.7°C 33.3°F0.7°C 36.3°F2.4°C
Dew Point 39.4°F4.1°C 31.9°F-0.1°C 34.0°F1.1°C
Winds 16.0 mph 25.7 kmh Calm Calm 5.0 mph WSW8.0 kmh WSW
Wind Gusts 20.0 mph32.2 kmh 2.0 mph3.2 kmh 10.0 mph16.1 kmh
Humidity 96% 81% 91%
Pressure 30.08 in1018.6 mb 29.54 in1000.3 mb -
Precipitation 0.15 in3.8 mm - -
Hour Temp Dew Point Humidity Winds Wind Gusts Pressure Precip Precip Rate Daily Precip Total
12:00 AM 41.7°F5.4°C 40.9°F4.9°C 97% 2.0 mph W3.2 kmh W 10.0 mph16.1 kmh 29.56 in1001.0 mb 0.11 in2.8 mm 0.00 in/hr0.0 mm/hr 0.11 in2.8 mm
12:10 AM 41.5°F5.3°C 40.5°F4.7°C 96% 5.0 mph NW8.0 kmh NW 8.0 mph12.9 kmh 29.55 in1000.7 mb 0.09 in2.3 mm 0.00 in/hr0.0 mm/hr 0.11 in2.8 mm
12:20 AM 41.2°F5.1°C 40.2°F4.6°C 96% 8.0 mph W12.9 kmh W 16.0 mph25.7 kmh 29.55 in1000.7 mb 0.09 in2.3 mm 0.00 in/hr0.0 mm/hr 0.11 in2.8 mm
12:30 AM 41.0°F5.0°C 40.0°F4.4°C 96% 3.0 mph W4.8 kmh W 12.0 mph19.3 kmh 29.56 in1001.0 mb 0.09 in2.3 mm 0.00 in/hr0.0 mm/hr 0.11 in2.8 mm
12:40 AM 40.7°F4.8°C 39.7°F4.3°C 96% 3.0 mph W4.8 kmh W 10.0 mph16.1 kmh 29.56 in1001.0 mb 0.17 in4.3 mm 0.48 in/hr12.2 mm/hr 0.19 in4.8 mm
12:50 AM 40.5°F4.7°C 39.5°F4.2°C 96% 2.0 mph W3.2 kmh W 10.0 mph16.1 kmh 29.56 in1001.0 mb 0.16 in4.1 mm 0.00 in/hr0.0 mm/hr 0.19 in4.8 mm
01:01 AM 40.4°F4.7°C 39.4°F4.1°C 96% 1.0 mph WNW1.6 kmh WNW 10.0 mph16.1 kmh 29.55 in1000.7 mb 0.15 in3.8 mm 0.00 in/hr0.0 mm/hr 0.19 in4.8 mm
01:10 AM 40.2°F4.6°C 39.2°F4.0°C 96% 3.0 mph WNW4.8 kmh WNW 13.0 mph20.9 kmh 29.54 in1000.3 mb 0.13 in3.3 mm 0.00 in/hr0.0 mm/hr 0.19 in4.8 mm
01:20 AM 40.0°F4.4°C 39.0°F3.9°C 96% 7.0 mph WNW11.3 kmh WNW 12.0 mph19.3 kmh 29.54 in1000.3 mb 0.12 in3.0 mm 0.00 in/hr0.0 mm/hr 0.19 in4.8 mm
01:30 AM 39.7°F4.3°C 38.7°F3.7°C 96% 9.0 mph NW14.5 kmh NW 15.0 mph24.1 kmh 29.56 in1001.0 mb 0.11 in2.8 mm 0.00 in/hr0.0 mm/hr 0.19 in4.8 mm
01:40 AM 39.5°F4.2°C 38.5°F3.6°C 96% 6.0 mph NW9.7 kmh NW 14.0 mph22.5 kmh 29.56 in1001.0 mb 0.01 in0.3 mm 0.00 in/hr0.0 mm/hr 0.19 in4.8 mm
01:50 AM 39.1°F3.9°C 37.8°F3.2°C 95% 7.0 mph W11.3 kmh W 14.0 mph22.5 kmh 29.56 in1001.0 mb 0.01 in0.3 mm 0.00 in/hr0.0 mm/hr 0.19 in4.8 mm
02:00 AM 39.0°F3.9°C 37.7°F3.2°C 95% 8.0 mph SW12.9 kmh SW 11.0 mph17.7 kmh 29.57 in1001.4 mb 0.01 in0.3 mm 0.00 in/hr0.0 mm/hr 0.19 in4.8 mm
02:10 AM 38.4°F3.6°C 37.1°F2.8°C 95% 4.0 mph WSW6.4 kmh WSW 15.0 mph24.1 kmh 29.58 in1001.7 mb 0.01 in0.3 mm 0.00 in/hr0.0 mm/hr 0.19 in4.8 mm
02:21 AM 38.0°F3.3°C 36.7°F2.6°C 95% 6.0 mph WSW9.7 kmh WSW 12.0 mph19.3 kmh 29.59 in1002.0 mb 0.00 in0.0 mm 0.00 in/hr0.0 mm/hr 0.19 in4.8 mm
02:30 AM 37.5°F3.1°C 36.2°F2.3°C 95% 9.0 mph W14.5 kmh W 16.0 mph25.7 kmh 29.60 in1002.4 mb 0.00 in0.0 mm 0.00 in/hr0.0 mm/hr 0.19 in4.8 mm
02:40 AM 37.2°F2.9°C 35.9°F2.2°C 95% 6.0 mph W9.7 kmh W 12.0 mph19.3 kmh 29.60 in1002.4 mb 0.00 in0.0 mm 0.00 in/hr0.0 mm/hr 0.19 in4.8 mm
02:51 AM 36.6°F2.6°C 35.0°F1.7°C 94% 7.0 mph WNW11.3 kmh WNW 20.0 mph32.2 kmh 29.62 in1003.0 mb 0.00 in0.0 mm 0.00 in/hr0.0 mm/hr 0.19 in4.8 mm
03:01 AM 36.3°F2.4°C 34.7°F1.5°C 94% 11.0 mph W17.7 kmh W 18.0 mph29.0 kmh 29.63 in1003.4 mb 0.00 in0.0 mm 0.00 in/hr0.0 mm/hr 0.19 in4.8 mm
03:10 AM 36.0°F2.2°C 34.4°F1.3°C 94% 5.0 mph WNW8.0 kmh WNW 14.0 mph22.5 kmh 29.64 in1003.7 mb 0.01 in0.3 mm 0.07 in/hr1.8 mm/hr 0.20 in5.1 mm
03:21 AM 35.9°F2.2°C 34.6°F1.4°C 95% 5.0 mph W8.0 kmh W 10.0 mph16.1 kmh 29.64 in1003.7 mb 0.03 in0.8 mm 0.11 in/hr2.8 mm/hr 0.22 in5.6 mm
03:30 AM 35.9°F2.2°C 34.6°F1.4°C 95% 5.0 mph W8.0 kmh W 9.0 mph14.5 kmh 29.65 in1004.1 mb 0.04 in1.0 mm 0.07 in/hr1.8 mm/hr 0.23 in5.8 mm
03:40 AM 35.7°F2.1°C 34.4°F1.3°C 95% 6.0 mph NNW9.7 kmh NNW 10.0 mph16.1 kmh 29.61 in1002.7 mb 0.05 in1.3 mm 0.06 in/hr1.5 mm/hr 0.24 in6.1 mm
03:50 AM 35.5°F1.9°C 34.2°F1.2°C 95% 4.0 mph WSW6.4 kmh WSW 13.0 mph20.9 kmh 29.62 in1003.0 mb 0.06 in1.5 mm 0.06 in/hr1.5 mm/hr 0.25 in6.4 mm
04:00 AM 35.6°F2.0°C 34.1°F1.2°C 94% 9.0 mph WSW14.5 kmh WSW 11.0 mph17.7 kmh 29.64 in1003.7 mb 0.06 in1.5 mm 0.00 in/hr0.0 mm/hr 0.25 in6.4 mm
04:10 AM 35.5°F1.9°C 34.2°F1.2°C 95% 6.0 mph WSW9.7 kmh WSW 13.0 mph20.9 kmh 29.65 in1004.1 mb 0.05 in1.3 mm 0.00 in/hr0.0 mm/hr 0.25 in6.4 mm
04:20 AM 35.7°F2.1°C 34.2°F1.2°C 94% Calm Calm 10.0 mph16.1 kmh 29.67 in1004.7 mb 0.03 in0.8 mm 0.00 in/hr0.0 mm/hr 0.25 in6.4 mm
04:30 AM 35.7°F2.1°C 34.2°F1.2°C 94% Calm Calm 10.0 mph16.1 kmh 29.67 in1004.7 mb 0.02 in0.5 mm 0.00 in/hr0.0 mm/hr 0.25 in6.4 mm
04:40 AM 35.7°F2.1°C 34.2°F1.2°C 94% 6.0 mph WSW9.7 kmh WSW 7.0 mph11.3 kmh 29.67 in1004.7 mb 0.01 in0.3 mm 0.00 in/hr0.0 mm/hr 0.25 in6.4 mm
04:50 AM 35.6°F2.0°C 34.1°F1.2°C 94% 2.0 mph WSW3.2 kmh WSW 11.0 mph17.7 kmh 29.68 in1005.1 mb 0.00 in0.0 mm 0.00 in/hr0.0 mm/hr 0.25 in6.4 mm
05:01 AM 34.9°F1.6°C 33.4°F0.8°C 94% 4.0 mph WSW6.4 kmh WSW 9.0 mph14.5 kmh 29.68 in1005.1 mb 0.00 in0.0 mm 0.00 in/hr0.0 mm/hr 0.25 in6.4 mm
05:10 AM 34.3°F1.3°C 32.8°F0.4°C 94% Calm Calm 7.0 mph11.3 kmh 29.69 in1005.4 mb 0.01 in0.3 mm 0.07 in/hr1.8 mm/hr 0.26 in6.6 mm
05:20 AM 33.9°F1.1°C 32.4°F0.2°C 94% 3.0 mph SW4.8 kmh SW 7.0 mph11.3 kmh 29.69 in1005.4 mb 0.01 in0.3 mm 0.00 in/hr0.0 mm/hr 0.26 in6.6 mm
05:30 AM 33.8°F1.0°C 32.3°F0.2°C 94% 5.0 mph WSW8.0 kmh WSW 6.0 mph9.7 kmh 29.70 in1005.8 mb 0.02 in0.5 mm 0.06 in/hr1.5 mm/hr 0.27 in6.9 mm
05:40 AM 33.6°F0.9°C 32.1°F0.1°C 94% 3.0 mph WSW4.8 kmh WSW 5.0 mph8.0 kmh 29.70 in1005.8 mb 0.02 in0.5 mm 0.00 in/hr0.0 mm/hr 0.27 in6.9 mm
05:50 AM 33.4°F0.8°C 31.9°F-0.1°C 94% 4.0 mph WSW6.4 kmh WSW 7.0 mph11.3 kmh 29.71 in1006.1 mb 0.02 in0.5 mm 0.00 in/hr0.0 mm/hr 0.27 in6.9 mm
06:00 AM 33.3°F0.7°C 32.0°F0.0°C 95% 1.0 mph WSW1.6 kmh WSW 7.0 mph11.3 kmh 29.72 in1006.4 mb 0.02 in0.5 mm 0.00 in/hr0.0 mm/hr 0.27 in6.9 mm
06:10 AM 33.4°F0.8°C 32.1°F0.1°C 95% 3.0 mph WSW4.8 kmh WSW 5.0 mph8.0 kmh 29.72 in1006.4 mb 0.02 in0.5 mm 0.00 in/hr0.0 mm/hr 0.27 in6.9 mm
06:20 AM 33.4°F0.8°C 32.1°F0.1°C 95% 6.0 mph WSW9.7 kmh WSW 8.0 mph12.9 kmh 29.72 in1006.4 mb 0.02 in0.5 mm 0.00 in/hr0.0 mm/hr 0.27 in6.9 mm
06:30 AM 33.5°F0.8°C 32.2°F0.1°C 95% 3.0 mph WSW4.8 kmh WSW 9.0 mph14.5 kmh 29.72 in1006.4 mb 0.01 in0.3 mm 0.00 in/hr0.0 mm/hr 0.27 in6.9 mm
06:40 AM 33.7°F0.9°C 32.4°F0.2°C 95% 4.0 mph W6.4 kmh W 9.0 mph14.5 kmh 29.73 in1006.8 mb 0.02 in0.5 mm 0.06 in/hr1.5 mm/hr 0.28 in7.1 mm
06:50 AM 33.9°F1.1°C 32.6°F0.3°C 95% 5.0 mph WSW8.0 kmh WSW 10.0 mph16.1 kmh 29.73 in1006.8 mb 0.02 in0.5 mm 0.00 in/hr0.0 mm/hr 0.28 in7.1 mm
07:00 AM 34.0°F1.1°C 32.7°F0.4°C 95% 3.0 mph WNW4.8 kmh WNW 9.0 mph14.5 kmh 29.73 in1006.8 mb 0.02 in0.5 mm 0.00 in/hr0.0 mm/hr 0.28 in7.1 mm
07:10 AM 34.3°F1.3°C 33.0°F0.6°C 95% 5.0 mph W8.0 kmh W 12.0 mph19.3 kmh 29.74 in1007.1 mb 0.02 in0.5 mm 0.00 in/hr0.0 mm/hr 0.28 in7.1 mm
07:20 AM 34.4°F1.3°C 33.1°F0.6°C 95% 4.0 mph W6.4 kmh W 11.0 mph17.7 kmh 29.75 in1007.5 mb 0.02 in0.5 mm 0.00 in/hr0.0 mm/hr 0.28 in7.1 mm
07:30 AM 34.6°F1.4°C 33.3°F0.7°C 95% 6.0 mph W9.7 kmh W 11.0 mph17.7 kmh 29.76 in1007.8 mb 0.02 in0.5 mm 0.00 in/hr0.0 mm/hr 0.28 in7.1 mm
07:50 AM 34.9°F1.6°C 33.6°F0.9°C 95% 10.0 mph WSW16.1 kmh WSW 10.0 mph16.1 kmh 29.77 in1008.1 mb 0.01 in0.3 mm 0.00 in/hr0.0 mm/hr 0.28 in7.1 mm
08:00 AM 35.2°F1.8°C 33.9°F1.1°C 95% 7.0 mph WSW11.3 kmh WSW 14.0 mph22.5 kmh 29.78 in1008.5 mb 0.02 in0.5 mm 0.01 in/hr0.3 mm/hr 0.29 in7.4 mm
08:10 AM 35.4°F1.9°C 34.1°F1.2°C 95% 8.0 mph WSW12.9 kmh WSW 12.0 mph19.3 kmh 29.78 in1008.5 mb 0.01 in0.3 mm 0.00 in/hr0.0 mm/hr 0.29 in7.4 mm
08:20 AM 35.5°F1.9°C 34.2°F1.2°C 95% 4.0 mph WSW6.4 kmh WSW 7.0 mph11.3 kmh 29.80 in1009.1 mb 0.01 in0.3 mm 0.00 in/hr0.0 mm/hr 0.29 in7.4 mm
08:30 AM 35.7°F2.1°C 34.4°F1.3°C 95% 7.0 mph NW11.3 kmh NW 13.0 mph20.9 kmh 29.81 in1009.5 mb 0.02 in0.5 mm 0.06 in/hr1.5 mm/hr 0.30 in7.6 mm
08:40 AM 35.9°F2.2°C 34.6°F1.4°C 95% 7.0 mph SW11.3 kmh SW 11.0 mph17.7 kmh 29.82 in1009.8 mb 0.02 in0.5 mm 0.00 in/hr0.0 mm/hr 0.30 in7.6 mm
08:50 AM 35.9°F2.2°C 34.6°F1.4°C 95% 6.0 mph WSW9.7 kmh WSW 12.0 mph19.3 kmh 29.83 in1010.2 mb 0.02 in0.5 mm 0.00 in/hr0.0 mm/hr 0.30 in7.6 mm
09:00 AM 36.0°F2.2°C 34.7°F1.5°C 95% 6.0 mph W9.7 kmh W 16.0 mph25.7 kmh 29.83 in1010.2 mb 0.01 in0.3 mm 0.00 in/hr0.0 mm/hr 0.30 in7.6 mm
09:10 AM 36.1°F2.3°C 34.8°F1.6°C 95% 4.0 mph WSW6.4 kmh WSW 14.0 mph22.5 kmh 29.84 in1010.5 mb 0.02 in0.5 mm 0.06 in/hr1.5 mm/hr 0.31 in7.9 mm
09:20 AM 36.1°F2.3°C 34.8°F1.6°C 95% 2.0 mph WSW3.2 kmh WSW 11.0 mph17.7 kmh 29.85 in1010.8 mb 0.02 in0.5 mm 0.00 in/hr0.0 mm/hr 0.31 in7.9 mm
09:30 AM 36.1°F2.3°C 34.8°F1.6°C 95% 5.0 mph WNW8.0 kmh WNW 12.0 mph19.3 kmh 29.85 in1010.8 mb 0.03 in0.8 mm 0.06 in/hr1.5 mm/hr 0.32 in8.1 mm
09:40 AM 36.1°F2.3°C 34.8°F1.6°C 95% 11.0 mph WSW17.7 kmh WSW 14.0 mph22.5 kmh 29.86 in1011.2 mb 0.03 in0.8 mm 0.00 in/hr0.0 mm/hr 0.32 in8.1 mm
09:50 AM 36.1°F2.3°C 34.8°F1.6°C 95% 7.0 mph W11.3 kmh W 14.0 mph22.5 kmh 29.86 in1011.2 mb 0.03 in0.8 mm 0.00 in/hr0.0 mm/hr 0.32 in8.1 mm
10:00 AM 36.0°F2.2°C 34.4°F1.3°C 94% 11.0 mph WSW17.7 kmh WSW 12.0 mph19.3 kmh 29.87 in1011.5 mb 0.03 in0.8 mm 0.00 in/hr0.0 mm/hr 0.32 in8.1 mm
10:10 AM 36.0°F2.2°C 34.4°F1.3°C 94% 13.0 mph W20.9 kmh W 13.0 mph20.9 kmh 29.87 in1011.5 mb 0.02 in0.5 mm 0.00 in/hr0.0 mm/hr 0.32 in8.1 mm
10:20 AM 36.0°F2.2°C 34.4°F1.3°C 94% 16.0 mph WSW25.7 kmh WSW 17.0 mph27.4 kmh 29.88 in1011.9 mb 0.02 in0.5 mm 0.00 in/hr0.0 mm/hr 0.32 in8.1 mm
10:30 AM 36.1°F2.3°C 34.3°F1.3°C 93% 4.0 mph WSW6.4 kmh WSW 11.0 mph17.7 kmh 29.89 in1012.2 mb 0.00 in0.0 mm 0.00 in/hr0.0 mm/hr 0.32 in8.1 mm
10:40 AM 36.1°F2.3°C 34.3°F1.3°C 93% 6.0 mph W9.7 kmh W 13.0 mph20.9 kmh 29.89 in1012.2 mb 0.00 in0.0 mm 0.00 in/hr0.0 mm/hr 0.32 in8.1 mm
10:50 AM 36.4°F2.4°C 34.6°F1.4°C 93% 5.0 mph W8.0 kmh W 10.0 mph16.1 kmh 29.89 in1012.2 mb 0.00 in0.0 mm 0.00 in/hr0.0 mm/hr 0.32 in8.1 mm
11:00 AM 36.5°F2.5°C 34.7°F1.5°C 93% 9.0 mph W14.5 kmh W 11.0 mph17.7 kmh 29.90 in1012.5 mb 0.00 in0.0 mm 0.00 in/hr0.0 mm/hr 0.32 in8.1 mm
11:10 AM 36.6°F2.6°C 34.5°F1.4°C 92% 6.0 mph W9.7 kmh W 13.0 mph20.9 kmh 29.91 in1012.9 mb 0.00 in0.0 mm 0.00 in/hr0.0 mm/hr 0.32 in8.1 mm
11:20 AM 36.6°F2.6°C 34.5°F1.4°C 92% 3.0 mph WSW4.8 kmh WSW 11.0 mph17.7 kmh 29.92 in1013.2 mb 0.00 in0.0 mm 0.00 in/hr0.0 mm/hr 0.32 in8.1 mm
11:30 AM 36.7°F2.6°C 34.6°F1.4°C 92% 14.0 mph W22.5 kmh W 14.0 mph22.5 kmh 29.92 in1013.2 mb 0.00 in0.0 mm 0.00 in/hr0.0 mm/hr 0.32 in8.1 mm
11:40 AM 36.6°F2.6°C 34.5°F1.4°C 92% 7.0 mph WSW11.3 kmh WSW 13.0 mph20.9 kmh 29.93 in1013.5 mb 0.00 in0.0 mm 0.00 in/hr0.0 mm/hr 0.32 in8.1 mm
11:50 AM 36.4°F2.4°C 34.3°F1.3°C 92% 9.0 mph W14.5 kmh W 14.0 mph22.5 kmh 29.94 in1013.9 mb 0.00 in0.0 mm 0.00 in/hr0.0 mm/hr 0.32 in8.1 mm
12:00 PM 36.2°F2.3°C 34.1°F1.2°C 92% 9.0 mph W14.5 kmh W 15.0 mph24.1 kmh 29.95 in1014.2 mb 0.00 in0.0 mm 0.00 in/hr0.0 mm/hr 0.32 in8.1 mm
12:10 PM 36.1°F2.3°C 34.0°F1.1°C 92% 3.0 mph W4.8 kmh W 17.0 mph27.4 kmh 29.95 in1014.2 mb 0.00 in0.0 mm 0.00 in/hr0.0 mm/hr 0.32 in8.1 mm
12:20 PM 35.9°F2.2°C 33.5°F0.8°C 91% 11.0 mph W17.7 kmh W 13.0 mph20.9 kmh 29.97 in1014.9 mb 0.00 in0.0 mm 0.00 in/hr0.0 mm/hr 0.32 in8.1 mm
12:30 PM 35.7°F2.1°C 33.3°F0.7°C 91% 10.0 mph WSW16.1 kmh WSW 12.0 mph19.3 kmh 29.97 in1014.9 mb 0.00 in0.0 mm 0.00 in/hr0.0 mm/hr 0.32 in8.1 mm
12:40 PM 35.2°F1.8°C 32.8°F0.4°C 91% 10.0 mph W16.1 kmh W 19.0 mph30.6 kmh 29.97 in1014.9 mb 0.00 in0.0 mm 0.00 in/hr0.0 mm/hr 0.32 in8.1 mm
12:50 PM 35.3°F1.8°C 33.2°F0.7°C 92% 4.0 mph SW6.4 kmh SW 11.0 mph17.7 kmh 29.96 in1014.6 mb 0.00 in0.0 mm 0.00 in/hr0.0 mm/hr 0.32 in8.1 mm
01:00 PM 35.2°F1.8°C 33.1°F0.6°C 92% 5.0 mph WSW8.0 kmh WSW 13.0 mph20.9 kmh 29.96 in1014.6 mb 0.00 in0.0 mm 0.00 in/hr0.0 mm/hr 0.32 in8.1 mm
01:10 PM 35.2°F1.8°C 32.8°F0.4°C 91% 6.0 mph W9.7 kmh W 15.0 mph24.1 kmh 29.96 in1014.6 mb 0.00 in0.0 mm 0.00 in/hr0.0 mm/hr 0.32 in8.1 mm
01:20 PM 35.3°F1.8°C 32.9°F0.5°C 91% 6.0 mph WSW9.7 kmh WSW 13.0 mph20.9 kmh 29.96 in1014.6 mb 0.00 in0.0 mm 0.00 in/hr0.0 mm/hr 0.32 in8.1 mm
01:30 PM 35.2°F1.8°C 32.6°F0.3°C 90% 10.0 mph NW16.1 kmh NW 16.0 mph25.7 kmh 29.96 in1014.6 mb 0.00 in0.0 mm 0.00 in/hr0.0 mm/hr 0.32 in8.1 mm
01:40 PM 35.2°F1.8°C 32.8°F0.4°C 91% 3.0 mph WSW4.8 kmh WSW 10.0 mph16.1 kmh 29.96 in1014.6 mb 0.00 in0.0 mm 0.00 in/hr0.0 mm/hr 0.32 in8.1 mm
01:50 PM 35.6°F2.0°C 33.2°F0.7°C 91% 9.0 mph W14.5 kmh W 15.0 mph24.1 kmh 29.95 in1014.2 mb 0.00 in0.0 mm 0.00 in/hr0.0 mm/hr 0.32 in8.1 mm
02:00 PM 36.6°F2.6°C 34.2°F1.2°C 91% 7.0 mph W11.3 kmh W 7.0 mph11.3 kmh 29.95 in1014.2 mb 0.00 in0.0 mm 0.00 in/hr0.0 mm/hr 0.32 in8.1 mm
02:10 PM 36.4°F2.4°C 33.8°F1.0°C 90% 2.0 mph WSW3.2 kmh WSW 10.0 mph16.1 kmh 29.95 in1014.2 mb 0.00 in0.0 mm 0.00 in/hr0.0 mm/hr 0.32 in8.1 mm
02:20 PM 36.6°F2.6°C 34.0°F1.1°C 90% 3.0 mph W4.8 kmh W 7.0 mph11.3 kmh 29.95 in1014.2 mb 0.00 in0.0 mm 0.00 in/hr0.0 mm/hr 0.32 in8.1 mm
02:30 PM 36.7°F2.6°C 33.8°F1.0°C 89% Calm Calm 4.0 mph6.4 kmh 29.95 in1014.2 mb 0.00 in0.0 mm 0.00 in/hr0.0 mm/hr 0.32 in8.1 mm
02:40 PM 36.6°F2.6°C 33.7°F0.9°C 89% 5.0 mph WNW8.0 kmh WNW 14.0 mph22.5 kmh 29.95 in1014.2 mb 0.00 in0.0 mm 0.00 in/hr0.0 mm/hr 0.32 in8.1 mm
02:50 PM 36.6°F2.6°C 33.7°F0.9°C 89% 9.0 mph WSW14.5 kmh WSW 12.0 mph19.3 kmh 29.96 in1014.6 mb 0.00 in0.0 mm 0.00 in/hr0.0 mm/hr 0.32 in8.1 mm
03:01 PM 36.5°F2.5°C 33.3°F0.7°C 88% 5.0 mph W8.0 kmh W 6.0 mph9.7 kmh 29.97 in1014.9 mb 0.00 in0.0 mm 0.00 in/hr0.0 mm/hr 0.32 in8.1 mm
03:10 PM 36.7°F2.6°C 33.5°F0.8°C 88% 4.0 mph W6.4 kmh W 12.0 mph19.3 kmh 29.97 in1014.9 mb 0.00 in0.0 mm 0.00 in/hr0.0 mm/hr 0.32 in8.1 mm
03:20 PM 36.8°F2.7°C 33.6°F0.9°C 88% 2.0 mph N3.2 kmh N 8.0 mph12.9 kmh 29.97 in1014.9 mb 0.00 in0.0 mm 0.00 in/hr0.0 mm/hr 0.32 in8.1 mm
03:30 PM 37.1°F2.8°C 33.9°F1.1°C 88% 10.0 mph W16.1 kmh W 10.0 mph16.1 kmh 29.97 in1014.9 mb 0.00 in0.0 mm 0.00 in/hr0.0 mm/hr 0.32 in8.1 mm
03:40 PM 37.5°F3.1°C 34.3°F1.3°C 88% 4.0 mph WSW6.4 kmh WSW 7.0 mph11.3 kmh 29.98 in1015.2 mb 0.00 in0.0 mm 0.00 in/hr0.0 mm/hr 0.32 in8.1 mm
03:50 PM 37.7°F3.2°C 34.2°F1.2°C 87% 6.0 mph SW9.7 kmh SW 10.0 mph16.1 kmh 29.99 in1015.6 mb 0.00 in0.0 mm 0.00 in/hr0.0 mm/hr 0.32 in8.1 mm
04:00 PM 38.0°F3.3°C 33.9°F1.1°C 85% 3.0 mph WSW4.8 kmh WSW 9.0 mph14.5 kmh 30.00 in1015.9 mb 0.00 in0.0 mm 0.00 in/hr0.0 mm/hr 0.32 in8.1 mm
04:10 PM 37.5°F3.1°C 33.1°F0.6°C 84% 2.0 mph WSW3.2 kmh WSW 9.0 mph14.5 kmh 30.00 in1015.9 mb 0.00 in0.0 mm 0.00 in/hr0.0 mm/hr 0.32 in8.1 mm
04:20 PM 37.6°F3.1°C 33.2°F0.7°C 84% 7.0 mph W11.3 kmh W 10.0 mph16.1 kmh 30.00 in1015.9 mb 0.00 in0.0 mm 0.00 in/hr0.0 mm/hr 0.32 in8.1 mm
04:30 PM 37.7°F3.2°C 33.0°F0.6°C 83% 4.0 mph WSW6.4 kmh WSW 7.0 mph11.3 kmh 30.01 in1016.3 mb 0.00 in0.0 mm 0.00 in/hr0.0 mm/hr 0.32 in8.1 mm
04:40 PM 37.6°F3.1°C 32.6°F0.3°C 82% Calm Calm 7.0 mph11.3 kmh 30.02 in1016.6 mb 0.00 in0.0 mm 0.00 in/hr0.0 mm/hr 0.32 in8.1 mm
04:50 PM 37.7°F3.2°C 33.0°F0.6°C 83% 6.0 mph WSW9.7 kmh WSW 6.0 mph9.7 kmh 30.02 in1016.6 mb 0.00 in0.0 mm 0.00 in/hr0.0 mm/hr 0.32 in8.1 mm
05:01 PM 37.9°F3.3°C 33.2°F0.7°C 83% 2.0 mph WSW3.2 kmh WSW 5.0 mph8.0 kmh 30.03 in1016.9 mb 0.00 in0.0 mm 0.00 in/hr0.0 mm/hr 0.32 in8.1 mm
05:10 PM 37.8°F3.2°C 32.5°F0.3°C 81% Calm Calm 10.0 mph16.1 kmh 30.02 in1016.6 mb 0.00 in0.0 mm 0.00 in/hr0.0 mm/hr 0.32 in8.1 mm
05:20 PM 37.8°F3.2°C 32.5°F0.3°C 81% 2.0 mph SW3.2 kmh SW 6.0 mph9.7 kmh 30.03 in1016.9 mb 0.00 in0.0 mm 0.00 in/hr0.0 mm/hr 0.32 in8.1 mm
05:30 PM 37.7°F3.2°C 33.0°F0.6°C 83% 4.0 mph SW6.4 kmh SW 5.0 mph8.0 kmh 30.03 in1016.9 mb 0.00 in0.0 mm 0.00 in/hr0.0 mm/hr 0.32 in8.1 mm
05:40 PM 37.7°F3.2°C 33.0°F0.6°C 83% 4.0 mph SW6.4 kmh SW 8.0 mph12.9 kmh 30.04 in1017.3 mb 0.00 in0.0 mm 0.00 in/hr0.0 mm/hr 0.32 in8.1 mm
05:50 PM 37.7°F3.2°C 33.0°F0.6°C 83% Calm Calm 7.0 mph11.3 kmh 30.03 in1016.9 mb 0.00 in0.0 mm 0.00 in/hr0.0 mm/hr 0.32 in8.1 mm
06:00 PM 37.5°F3.1°C 32.8°F0.4°C 83% 4.0 mph SW6.4 kmh SW 7.0 mph11.3 kmh 30.03 in1016.9 mb 0.00 in0.0 mm 0.00 in/hr0.0 mm/hr 0.32 in8.1 mm
06:10 PM 37.5°F3.1°C 33.1°F0.6°C 84% 5.0 mph SW8.0 kmh SW 7.0 mph11.3 kmh 30.04 in1017.3 mb 0.00 in0.0 mm 0.00 in/hr0.0 mm/hr 0.32 in8.1 mm
06:20 PM 37.3°F2.9°C 32.9°F0.5°C 84% Calm Calm 4.0 mph6.4 kmh 30.04 in1017.3 mb 0.00 in0.0 mm 0.00 in/hr0.0 mm/hr 0.32 in8.1 mm
06:30 PM 37.0°F2.8°C 32.6°F0.3°C 84% Calm Calm 6.0 mph9.7 kmh 30.04 in1017.3 mb 0.00 in0.0 mm 0.00 in/hr0.0 mm/hr 0.32 in8.1 mm
06:40 PM 36.6°F2.6°C 32.2°F0.1°C 84% Calm Calm 4.0 mph6.4 kmh 30.05 in1017.6 mb 0.00 in0.0 mm 0.00 in/hr0.0 mm/hr 0.32 in8.1 mm
06:50 PM 36.6°F2.6°C 32.5°F0.3°C 85% Calm Calm 2.0 mph3.2 kmh 30.05 in1017.6 mb 0.00 in0.0 mm 0.00 in/hr0.0 mm/hr 0.32 in8.1 mm
07:00 PM 36.5°F2.5°C 32.4°F0.2°C 85% Calm Calm 3.0 mph4.8 kmh 30.05 in1017.6 mb 0.00 in0.0 mm 0.00 in/hr0.0 mm/hr 0.32 in8.1 mm
07:10 PM 36.4°F2.4°C 32.6°F0.3°C 86% 4.0 mph SSW6.4 kmh SSW 5.0 mph8.0 kmh 30.06 in1017.9 mb 0.00 in0.0 mm 0.00 in/hr0.0 mm/hr 0.32 in8.1 mm
07:20 PM 36.5°F2.5°C 32.4°F0.2°C 85% Calm Calm 4.0 mph6.4 kmh 30.07 in1018.3 mb 0.00 in0.0 mm 0.00 in/hr0.0 mm/hr 0.32 in8.1 mm
07:30 PM 36.6°F2.6°C 32.5°F0.3°C 85% 1.0 mph SW1.6 kmh SW 7.0 mph11.3 kmh 30.08 in1018.6 mb 0.00 in0.0 mm 0.00 in/hr0.0 mm/hr 0.32 in8.1 mm
07:40 PM 36.6°F2.6°C 32.2°F0.1°C 84% 2.0 mph SW3.2 kmh SW 4.0 mph6.4 kmh 30.08 in1018.6 mb 0.00 in0.0 mm 0.00 in/hr0.0 mm/hr 0.32 in8.1 mm
07:50 PM 36.7°F2.6°C 32.3°F0.2°C 84% Calm Calm 5.0 mph8.0 kmh 30.08 in1018.6 mb 0.00 in0.0 mm 0.00 in/hr0.0 mm/hr 0.32 in8.1 mm
08:00 PM 36.6°F2.6°C 32.2°F0.1°C 84% Calm Calm 5.0 mph8.0 kmh 30.08 in1018.6 mb 0.00 in0.0 mm 0.00 in/hr0.0 mm/hr 0.32 in8.1 mm
08:10 PM 36.2°F2.3°C 32.1°F0.1°C 85% 3.0 mph S4.8 kmh S 3.0 mph4.8 kmh 30.08 in1018.6 mb 0.00 in0.0 mm 0.00 in/hr0.0 mm/hr 0.32 in8.1 mm
08:20 PM 36.1°F2.3°C 32.0°F0.0°C 85% Calm Calm 5.0 mph8.0 kmh 30.09 in1019.0 mb 0.00 in0.0 mm 0.00 in/hr0.0 mm/hr 0.32 in8.1 mm
08:30 PM 36.1°F2.3°C 32.0°F0.0°C 85% Calm Calm 2.0 mph3.2 kmh 30.09 in1019.0 mb 0.00 in0.0 mm 0.00 in/hr0.0 mm/hr 0.32 in8.1 mm
08:40 PM 36.1°F2.3°C 31.7°F-0.2°C 84% Calm Calm 4.0 mph6.4 kmh 30.10 in1019.3 mb 0.00 in0.0 mm 0.00 in/hr0.0 mm/hr 0.32 in8.1 mm
08:50 PM 36.1°F2.3°C 31.5°F-0.3°C 83% 3.0 mph SW4.8 kmh SW 4.0 mph6.4 kmh 30.10 in1019.3 mb 0.00 in0.0 mm 0.00 in/hr0.0 mm/hr 0.32 in8.1 mm
09:01 PM 36.2°F2.3°C 31.5°F-0.3°C 83% Calm Calm 5.0 mph8.0 kmh 30.10 in1019.3 mb 0.00 in0.0 mm 0.00 in/hr0.0 mm/hr 0.32 in8.1 mm
09:10 PM 36.3°F2.4°C 31.6°F-0.2°C 83% 4.0 mph SSW6.4 kmh SSW 9.0 mph14.5 kmh 30.11 in1019.6 mb 0.00 in0.0 mm 0.00 in/hr0.0 mm/hr 0.32 in8.1 mm
09:20 PM 36.4°F2.4°C 32.0°F0.0°C 84% 5.0 mph SW8.0 kmh SW 6.0 mph9.7 kmh 30.11 in1019.6 mb 0.00 in0.0 mm 0.00 in/hr0.0 mm/hr 0.32 in8.1 mm
09:30 PM 36.5°F2.5°C 32.1°F0.1°C 84% 5.0 mph SW8.0 kmh SW 12.0 mph19.3 kmh 30.11 in1019.6 mb 0.00 in0.0 mm 0.00 in/hr0.0 mm/hr 0.32 in8.1 mm
09:40 PM 36.4°F2.4°C 32.0°F0.0°C 84% 3.0 mph SSW4.8 kmh SSW 7.0 mph11.3 kmh 30.11 in1019.6 mb 0.00 in0.0 mm 0.00 in/hr0.0 mm/hr 0.32 in8.1 mm
09:50 PM 36.3°F2.4°C 32.2°F0.1°C 85% 1.0 mph SSW1.6 kmh SSW 7.0 mph11.3 kmh 30.11 in1019.6 mb 0.00 in0.0 mm 0.00 in/hr0.0 mm/hr 0.32 in8.1 mm
10:00 PM 36.2°F2.3°C 32.1°F0.1°C 85% 3.0 mph SW4.8 kmh SW 4.0 mph6.4 kmh 30.11 in1019.6 mb 0.00 in0.0 mm 0.00 in/hr0.0 mm/hr 0.32 in8.1 mm
10:10 PM 36.0°F2.2°C 31.9°F-0.1°C 85% 2.0 mph SSW3.2 kmh SSW 6.0 mph9.7 kmh 30.10 in1019.3 mb 0.00 in0.0 mm 0.00 in/hr0.0 mm/hr 0.32 in8.1 mm
10:20 PM 36.0°F2.2°C 31.9°F-0.1°C 85% Calm Calm 5.0 mph8.0 kmh 30.10 in1019.3 mb 0.00 in0.0 mm 0.00 in/hr0.0 mm/hr 0.32 in8.1 mm
10:30 PM 36.0°F2.2°C 31.6°F-0.2°C 84% Calm Calm 9.0 mph14.5 kmh 30.10 in1019.3 mb 0.00 in0.0 mm 0.00 in/hr0.0 mm/hr 0.32 in8.1 mm
10:40 PM 36.0°F2.2°C 31.4°F-0.3°C 83% 5.0 mph SW8.0 kmh SW 7.0 mph11.3 kmh 30.11 in1019.6 mb 0.00 in0.0 mm 0.00 in/hr0.0 mm/hr 0.32 in8.1 mm
10:50 PM 36.0°F2.2°C 31.1°F-0.5°C 82% 5.0 mph SW8.0 kmh SW 9.0 mph14.5 kmh 30.11 in1019.6 mb 0.00 in0.0 mm 0.00 in/hr0.0 mm/hr 0.32 in8.1 mm
11:00 PM 35.9°F2.2°C 31.0°F-0.6°C 82% 3.0 mph SW4.8 kmh SW 11.0 mph17.7 kmh 30.11 in1019.6 mb 0.00 in0.0 mm 0.00 in/hr0.0 mm/hr 0.32 in8.1 mm
11:10 PM 35.6°F2.0°C 30.4°F-0.9°C 81% 5.0 mph S8.0 kmh S 11.0 mph17.7 kmh 30.11 in1019.6 mb 0.00 in0.0 mm 0.00 in/hr0.0 mm/hr 0.32 in8.1 mm
11:20 PM 35.4°F1.9°C 29.9°F-1.2°C 80% 3.0 mph SSW4.8 kmh SSW 11.0 mph17.7 kmh 30.09 in1019.0 mb 0.00 in0.0 mm 0.00 in/hr0.0 mm/hr 0.32 in8.1 mm
11:30 PM 35.1°F1.7°C 30.2°F-1.0°C 82% 1.0 mph SSW1.6 kmh SSW 5.0 mph8.0 kmh 30.09 in1019.0 mb 0.00 in0.0 mm 0.00 in/hr0.0 mm/hr 0.32 in8.1 mm
11:40 PM 34.8°F1.6°C 30.2°F-1.0°C 83% Calm Calm 3.0 mph4.8 kmh 30.09 in1019.0 mb 0.00 in0.0 mm 0.00 in/hr0.0 mm/hr 0.32 in8.1 mm
11:50 PM 34.7°F1.5°C 30.1°F-1.1°C 83% 2.0 mph S3.2 kmh S 4.0 mph6.4 kmh 30.09 in1019.0 mb 0.00 in0.0 mm 0.00 in/hr0.0 mm/hr 0.32 in8.1 mm